createdAt,value
2023-03-01T00:02:29.955Z,18.90
2023-03-01T00:05:00.329Z,19.10
2023-03-01T00:07:33.913Z,18.90
2023-03-01T00:10:08.691Z,19.50
2023-03-01T00:12:41.164Z,19.30
2023-03-01T00:15:13.416Z,20.20
2023-03-01T00:17:44.129Z,20.30
2023-03-01T00:20:17.226Z,19.00
2023-03-01T00:22:47.760Z,18.80
2023-03-01T00:25:18.749Z,20.90
2023-03-01T00:27:50.045Z,19.10
2023-03-01T00:30:22.991Z,19.40
2023-03-01T00:32:55.928Z,20.90
2023-03-01T00:35:26.396Z,18.90
2023-03-01T00:38:02.424Z,19.40
2023-03-01T00:40:36.635Z,19.30
2023-03-01T00:43:06.965Z,19.80
2023-03-01T00:45:40.112Z,19.50
2023-03-01T00:48:12.746Z,18.60
2023-03-01T00:50:43.434Z,20.20
2023-03-01T00:53:13.601Z,18.70
2023-03-01T00:55:46.437Z,19.20
2023-03-01T00:58:19.523Z,19.80
2023-03-01T01:00:52.877Z,19.40
2023-03-01T01:03:25.305Z,20.70
2023-03-01T01:05:56.305Z,19.90
2023-03-01T01:08:29.994Z,19.30
2023-03-01T01:11:00.485Z,19.50
2023-03-01T01:13:32.858Z,19.30
2023-03-01T01:16:05.214Z,19.90
2023-03-01T01:18:35.971Z,19.10
2023-03-01T01:21:15.251Z,19.80
2023-03-01T01:23:47.365Z,20.30
2023-03-01T01:26:20.260Z,19.10
2023-03-01T01:28:50.750Z,20.10
2023-03-01T01:31:23.969Z,19.80
2023-03-01T01:33:55.595Z,19.80
2023-03-01T01:36:26.962Z,18.80
2023-03-01T01:38:59.856Z,19.20
2023-03-01T01:41:31.458Z,19.30
2023-03-01T01:44:20.752Z,19.10
2023-03-01T01:46:57.127Z,19.40
2023-03-01T01:49:35.113Z,19.50
2023-03-01T01:52:11.226Z,19.80
2023-03-01T01:54:47.906Z,19.20
2023-03-01T01:57:24.988Z,20.10
2023-03-01T01:59:59.000Z,20.20
2023-03-01T02:02:29.925Z,19.70
2023-03-01T02:05:11.276Z,19.30
2023-03-01T02:07:46.253Z,18.70
2023-03-01T02:10:22.057Z,18.20
2023-03-01T02:12:52.943Z,19.40
2023-03-01T02:15:28.552Z,19.40
2023-03-01T02:18:02.663Z,19.00
2023-03-01T02:20:44.252Z,19.10
2023-03-01T02:23:17.490Z,19.80
2023-03-01T02:25:56.624Z,19.50
2023-03-01T02:28:36.881Z,18.40
2023-03-01T02:31:27.668Z,20.30
2023-03-01T02:33:59.640Z,19.40
2023-03-01T02:36:39.893Z,19.20
2023-03-01T02:39:20.763Z,20.10
2023-03-01T02:41:55.046Z,18.50
2023-03-01T02:44:26.536Z,18.90
2023-03-01T02:47:03.619Z,18.60
2023-03-01T02:49:37.844Z,18.90
2023-03-01T02:52:44.697Z,19.90
2023-03-01T02:55:18.918Z,19.30
2023-03-01T02:57:53.744Z,18.70
2023-03-01T03:00:29.651Z,18.70
2023-03-01T03:02:59.780Z,19.80
2023-03-01T03:05:32.630Z,19.40
2023-03-01T03:08:08.034Z,18.80
2023-03-01T03:10:43.301Z,19.20
2023-03-01T03:13:15.470Z,19.80
2023-03-01T03:15:46.509Z,19.60
2023-03-01T03:18:19.293Z,19.00
2023-03-01T03:20:53.310Z,18.30
2023-03-01T03:23:27.121Z,19.60
2023-03-01T03:25:57.757Z,20.50
2023-03-01T03:28:28.696Z,19.70
2023-03-01T03:31:01.274Z,18.40
2023-03-01T03:33:32.013Z,18.90
2023-03-01T03:36:02.564Z,19.70
2023-03-01T03:38:38.095Z,19.70
2023-03-01T03:41:13.805Z,18.00
2023-03-01T03:43:48.521Z,19.20
2023-03-01T03:46:19.059Z,18.90
2023-03-01T03:48:50.447Z,19.40
2023-03-01T03:51:23.397Z,18.10
2023-03-01T03:53:53.989Z,19.60
2023-03-01T03:56:28.488Z,19.60
2023-03-01T03:58:58.986Z,18.60
2023-03-01T04:01:31.708Z,18.80
2023-03-01T04:04:04.558Z,18.10
2023-03-01T04:06:39.382Z,18.90
2023-03-01T04:09:11.763Z,18.50
2023-03-01T04:11:42.042Z,18.20
2023-03-01T04:14:13.449Z,18.20
2023-03-01T04:16:43.457Z,19.00
2023-03-01T04:19:16.406Z,18.50
2023-03-01T04:21:50.020Z,19.10
2023-03-01T04:24:25.658Z,18.30
2023-03-01T04:26:57.215Z,18.50
2023-03-01T04:29:31.025Z,19.30
2023-03-01T04:32:06.986Z,17.90
2023-03-01T04:34:38.024Z,19.00
2023-03-01T04:37:10.553Z,19.20
2023-03-01T04:39:46.153Z,19.40
2023-03-01T04:42:17.199Z,19.80
2023-03-01T04:44:48.192Z,19.60
2023-03-01T04:47:21.895Z,18.70
2023-03-01T04:49:52.580Z,21.00
2023-03-01T04:52:22.505Z,19.70
2023-03-01T04:54:53.032Z,19.40
2023-03-01T04:57:25.820Z,20.60
2023-03-01T04:59:56.618Z,19.70
2023-03-01T05:02:28.159Z,19.70
2023-03-01T05:05:01.410Z,19.60
2023-03-01T05:07:34.141Z,20.00
2023-03-01T05:10:09.385Z,20.70
2023-03-01T05:12:40.230Z,19.80
2023-03-01T05:15:13.679Z,20.10
2023-03-01T05:17:44.002Z,20.30
2023-03-01T05:20:17.914Z,20.00
2023-03-01T05:22:54.030Z,18.40
2023-03-01T05:25:24.661Z,19.90
2023-03-01T05:27:55.300Z,18.50
2023-03-01T05:30:27.723Z,19.90
2023-03-01T05:32:58.666Z,19.00
2023-03-01T05:35:30.105Z,19.50
2023-03-01T05:38:03.671Z,20.40
2023-03-01T05:40:40.121Z,20.10
2023-03-01T05:43:13.260Z,20.10
2023-03-01T05:45:44.222Z,20.20
2023-03-01T05:48:14.961Z,19.60
2023-03-01T05:50:48.052Z,19.20
2023-03-01T05:53:21.760Z,20.60
2023-03-01T05:55:52.597Z,20.20
2023-03-01T05:58:23.137Z,19.70
2023-03-01T06:00:55.375Z,18.90
2023-03-01T06:03:26.454Z,19.00
2023-03-01T06:06:00.123Z,19.80
2023-03-01T06:08:30.377Z,19.00
2023-03-01T06:11:00.562Z,19.80
2023-03-01T06:13:34.787Z,19.30
2023-03-01T06:16:08.977Z,19.50
2023-03-01T06:18:39.780Z,19.20
2023-03-01T06:21:10.620Z,18.20
2023-03-01T06:23:41.975Z,18.30
2023-03-01T06:26:14.819Z,19.20
2023-03-01T06:28:47.294Z,21.30
2023-03-01T06:31:18.408Z,18.70
2023-03-01T06:33:49.533Z,18.70
2023-03-01T06:36:22.424Z,19.60
2023-03-01T06:38:58.317Z,20.00
2023-03-01T06:41:29.626Z,17.70
2023-03-01T06:44:00.823Z,18.30
2023-03-01T06:46:34.167Z,20.00
2023-03-01T06:49:09.875Z,18.70
2023-03-01T06:51:42.962Z,20.20
2023-03-01T06:54:18.225Z,19.30
2023-03-01T06:56:50.938Z,19.10
2023-03-01T06:59:21.721Z,17.40
2023-03-01T07:01:54.476Z,18.40
2023-03-01T07:04:29.186Z,17.50
2023-03-01T07:06:59.925Z,17.90
2023-03-01T07:09:35.469Z,18.10
2023-03-01T07:12:10.715Z,18.00
2023-03-01T07:14:40.833Z,18.10
2023-03-01T07:17:13.614Z,18.20
2023-03-01T07:19:45.429Z,18.20
2023-03-01T07:22:20.467Z,18.00
2023-03-01T07:24:50.724Z,17.60
2023-03-01T07:27:26.079Z,17.30
2023-03-01T07:30:03.536Z,17.50
2023-03-01T07:32:35.080Z,17.80
2023-03-01T07:35:15.817Z,17.40
2023-03-01T07:37:47.460Z,17.40
2023-03-01T07:40:20.335Z,17.00
2023-03-01T07:42:58.299Z,16.70
2023-03-01T07:45:31.585Z,16.60
2023-03-01T07:48:01.926Z,17.40
2023-03-01T07:50:33.229Z,17.50
2023-03-01T07:53:12.449Z,17.30
2023-03-01T07:55:44.931Z,17.60
2023-03-01T07:58:14.643Z,18.60
2023-03-01T08:00:45.076Z,18.60
2023-03-01T08:03:19.449Z,19.40
2023-03-01T08:05:49.726Z,18.40
2023-03-01T08:08:30.184Z,17.20
2023-03-01T08:11:05.659Z,18.50
2023-03-01T08:13:38.875Z,17.20
2023-03-01T08:16:13.481Z,18.30
2023-03-01T08:18:44.351Z,17.40
2023-03-01T08:21:17.782Z,19.10
2023-03-01T08:23:52.827Z,17.10
2023-03-01T08:26:24.473Z,18.10
2023-03-01T08:28:58.699Z,18.70
2023-03-01T08:31:44.747Z,17.10
2023-03-01T08:34:19.158Z,17.40
2023-03-01T08:36:53.836Z,16.80
2023-03-01T08:39:25.334Z,16.30
2023-03-01T08:42:01.302Z,18.20
2023-03-01T08:44:31.883Z,17.20
2023-03-01T08:47:02.825Z,17.70
2023-03-01T08:49:36.132Z,17.40
2023-03-01T08:52:06.295Z,16.60
2023-03-01T08:54:38.357Z,16.60
2023-03-01T08:57:10.180Z,15.80
2023-03-01T08:59:42.711Z,16.70
2023-03-01T09:02:20.039Z,14.50
2023-03-01T09:04:52.621Z,15.40
2023-03-01T09:07:29.202Z,14.70
2023-03-01T09:10:02.852Z,16.60
2023-03-01T09:12:36.395Z,14.80
2023-03-01T09:15:14.865Z,15.30
2023-03-01T09:17:45.018Z,14.60
2023-03-01T09:20:18.349Z,15.90
2023-03-01T09:22:52.450Z,15.10
2023-03-01T09:25:31.226Z,13.70
2023-03-01T09:28:01.455Z,13.50
2023-03-01T09:30:35.555Z,13.70
2023-03-01T09:33:05.950Z,13.00
2023-03-01T09:35:46.541Z,13.80
2023-03-01T09:38:21.236Z,14.70
2023-03-01T09:40:51.614Z,13.80
2023-03-01T09:43:30.697Z,13.20
2023-03-01T09:46:09.140Z,13.30
2023-03-01T09:48:46.647Z,14.10
2023-03-01T09:51:32.330Z,12.90
2023-03-01T09:54:06.087Z,13.10
2023-03-01T09:56:45.209Z,13.20
2023-03-01T09:59:27.928Z,12.50
2023-03-01T10:02:17.851Z,12.60
2023-03-01T10:04:52.121Z,12.40
2023-03-01T10:07:46.193Z,11.90
2023-03-01T10:10:29.292Z,11.90
2023-03-01T10:13:07.992Z,12.30
2023-03-01T10:15:46.894Z,11.60
2023-03-01T10:18:24.191Z,11.20
2023-03-01T10:21:07.051Z,11.90
2023-03-01T10:23:39.279Z,12.10
2023-03-01T10:26:36.552Z,11.40
2023-03-01T10:29:11.090Z,11.20
2023-03-01T10:31:50.900Z,11.60
2023-03-01T10:34:28.222Z,11.40
2023-03-01T10:37:12.529Z,10.80
2023-03-01T10:39:59.893Z,10.80
2023-03-01T10:42:33.613Z,11.60
2023-03-01T10:45:28.232Z,10.70
2023-03-01T10:48:14.007Z,10.80
2023-03-01T10:50:50.685Z,10.60
2023-03-01T10:53:30.013Z,10.30
2023-03-01T10:56:17.638Z,10.30
2023-03-01T10:59:03.533Z,10.90
2023-03-01T11:01:38.312Z,10.30
2023-03-01T11:04:17.485Z,9.80
2023-03-01T11:07:02.400Z,10.00
2023-03-01T11:09:39.941Z,10.60
2023-03-01T11:12:20.598Z,10.20
2023-03-01T11:14:55.095Z,10.50
2023-03-01T11:17:31.630Z,10.70
2023-03-01T11:20:14.964Z,9.50
2023-03-01T11:22:50.845Z,9.90
2023-03-01T11:25:27.670Z,9.70
2023-03-01T11:28:02.131Z,10.00
2023-03-01T11:30:41.357Z,9.40
2023-03-01T11:33:19.986Z,9.50
2023-03-01T11:36:02.070Z,9.70
2023-03-01T11:38:36.968Z,10.20
2023-03-01T11:41:18.149Z,11.40
2023-03-01T11:44:01.198Z,10.10
2023-03-01T11:47:18.237Z,9.80
2023-03-01T11:50:06.236Z,9.60
2023-03-01T11:52:55.538Z,9.40
2023-03-01T11:55:52.878Z,9.40
2023-03-01T11:58:44.813Z,9.90
2023-03-01T12:01:35.872Z,8.40
2023-03-01T12:05:03.655Z,9.10
2023-03-01T12:07:45.381Z,8.30
2023-03-01T12:10:28.136Z,10.70
2023-03-01T12:13:37.064Z,8.70
2023-03-01T12:16:38.899Z,8.10
2023-03-01T12:19:32.283Z,9.00
2023-03-01T12:22:35.872Z,8.40
2023-03-01T12:25:30.779Z,8.00
2023-03-01T12:28:39.591Z,7.70
2023-03-01T12:32:08.278Z,8.10
2023-03-01T12:35:10.401Z,8.50
2023-03-01T12:37:59.606Z,7.90
2023-03-01T12:41:14.352Z,8.40
2023-03-01T12:44:02.492Z,7.50
2023-03-01T12:46:48.009Z,7.60
2023-03-01T12:49:21.973Z,8.10
2023-03-01T12:52:04.013Z,8.10
2023-03-01T12:54:40.641Z,7.40
2023-03-01T12:57:23.916Z,7.40
2023-03-01T13:00:11.533Z,8.20
2023-03-01T13:02:52.606Z,8.10
2023-03-01T13:05:46.883Z,7.50
2023-03-01T13:08:24.067Z,7.50
2023-03-01T13:11:02.756Z,7.40
2023-03-01T13:13:35.050Z,6.90
2023-03-01T13:16:45.707Z,7.80
2023-03-01T13:19:22.134Z,8.20
2023-03-01T13:21:56.858Z,7.40
2023-03-01T13:24:44.169Z,7.30
2023-03-01T13:27:25.974Z,7.20
2023-03-01T13:30:06.535Z,7.10
2023-03-01T13:32:44.776Z,7.60
2023-03-01T13:35:45.596Z,7.20
2023-03-01T13:38:47.465Z,6.90
2023-03-01T13:41:43.872Z,7.30
2023-03-01T13:44:24.792Z,8.00
2023-03-01T13:47:01.270Z,6.90
2023-03-01T13:49:46.566Z,6.50
2023-03-01T13:52:40.105Z,8.40
2023-03-01T13:55:24.706Z,6.40
2023-03-01T13:58:06.288Z,7.00
2023-03-01T14:00:41.569Z,5.90
2023-03-01T14:03:20.399Z,6.70
2023-03-01T14:06:14.640Z,6.80
2023-03-01T14:08:47.223Z,6.40
2023-03-01T14:11:58.882Z,6.60
2023-03-01T14:14:53.501Z,6.80
2023-03-01T14:18:04.611Z,6.40
2023-03-01T14:20:43.227Z,6.40
2023-03-01T14:23:17.967Z,7.30
2023-03-01T14:25:55.043Z,7.20
2023-03-01T14:28:33.764Z,6.80
2023-03-01T14:31:08.095Z,6.30
2023-03-01T14:33:42.567Z,6.40
2023-03-01T14:36:15.995Z,6.70
2023-03-01T14:38:50.065Z,6.50
2023-03-01T14:41:26.438Z,7.10
2023-03-01T14:44:02.750Z,7.30
2023-03-01T14:46:38.137Z,7.70
2023-03-01T14:49:16.817Z,6.70
2023-03-01T14:51:56.402Z,7.70
2023-03-01T14:54:31.502Z,7.90
2023-03-01T14:57:04.498Z,7.10
2023-03-01T14:59:35.724Z,6.90
2023-03-01T15:02:09.890Z,7.80
2023-03-01T15:04:40.381Z,7.60
2023-03-01T15:07:16.535Z,8.00
2023-03-01T15:09:47.428Z,7.20
2023-03-01T15:12:40.570Z,8.20
2023-03-01T15:15:43.201Z,8.80
2023-03-01T15:18:21.971Z,8.40
2023-03-01T15:20:52.544Z,9.50
2023-03-01T15:23:31.538Z,9.50
2023-03-01T15:26:03.881Z,9.00
2023-03-01T15:28:38.980Z,8.70
2023-03-01T15:31:22.123Z,9.30
2023-03-01T15:33:54.273Z,8.50
2023-03-01T15:36:42.022Z,9.80
2023-03-01T15:39:43.643Z,8.50
2023-03-01T15:42:35.861Z,8.90
2023-03-01T15:47:51.829Z,8.10
2023-03-01T15:50:30.144Z,8.20
2023-03-01T15:53:05.123Z,8.40
2023-03-01T15:55:37.708Z,8.60
2023-03-01T15:58:17.105Z,8.60
2023-03-01T16:01:00.482Z,9.00
2023-03-01T16:03:32.539Z,7.50
2023-03-01T16:06:03.499Z,8.70
2023-03-01T16:08:36.682Z,8.00
2023-03-01T16:11:15.723Z,8.20
2023-03-01T16:13:46.882Z,8.10
2023-03-01T16:16:21.788Z,8.70
2023-03-01T16:18:57.234Z,8.80
2023-03-01T16:21:30.459Z,8.40
2023-03-01T16:24:04.334Z,7.70
2023-03-01T16:26:38.399Z,8.50
2023-03-01T16:29:09.504Z,8.30
2023-03-01T16:31:44.578Z,8.30
2023-03-01T16:34:16.047Z,8.80
2023-03-01T16:36:49.881Z,8.00
2023-03-01T16:39:25.652Z,9.40
2023-03-01T16:41:56.705Z,7.50
2023-03-01T16:44:27.341Z,7.80
2023-03-01T16:46:58.329Z,8.10
2023-03-01T16:49:31.834Z,8.00
2023-03-01T16:52:02.570Z,8.80
2023-03-01T16:54:35.787Z,8.30
2023-03-01T16:57:06.193Z,7.80
2023-03-01T16:59:41.993Z,8.10
2023-03-01T17:02:19.698Z,8.20
2023-03-01T17:04:56.933Z,7.60
2023-03-01T17:07:27.823Z,7.70
2023-03-01T17:09:58.472Z,7.60
2023-03-01T17:12:35.543Z,8.00
2023-03-01T17:15:08.890Z,7.90
2023-03-01T17:17:39.995Z,6.70
2023-03-01T17:20:17.587Z,7.00
2023-03-01T17:22:48.221Z,7.40
2023-03-01T17:25:23.204Z,7.70
2023-03-01T17:27:55.992Z,7.80
2023-03-01T17:30:27.041Z,7.30
2023-03-01T17:33:01.461Z,8.00
2023-03-01T17:35:37.507Z,7.60
2023-03-01T17:38:08.872Z,8.40
2023-03-01T17:40:43.961Z,7.70
2023-03-01T17:43:18.138Z,8.90
2023-03-01T17:45:52.037Z,8.50
2023-03-01T17:48:23.139Z,7.60
2023-03-01T17:50:56.944Z,8.20
2023-03-01T17:53:29.777Z,8.10
2023-03-01T17:56:06.861Z,8.80
2023-03-01T17:58:40.560Z,8.90
2023-03-01T18:01:24.709Z,7.50
2023-03-01T18:04:01.340Z,8.20
2023-03-01T18:06:33.600Z,7.10
2023-03-01T18:09:15.759Z,8.00
2023-03-01T18:14:29.210Z,7.60
2023-03-01T18:17:01.507Z,8.00
2023-03-01T18:19:40.560Z,7.90
2023-03-01T18:22:16.057Z,8.20
2023-03-01T18:24:54.109Z,8.10
2023-03-01T18:27:26.282Z,8.10
2023-03-01T18:30:01.111Z,8.30
2023-03-01T18:32:39.017Z,8.00
2023-03-01T18:35:14.506Z,8.50
2023-03-01T18:37:45.812Z,8.80
2023-03-01T18:40:17.216Z,9.00
2023-03-01T18:42:48.324Z,8.90
2023-03-01T18:45:33.079Z,8.80
2023-03-01T18:48:04.878Z,8.50
2023-03-01T18:50:39.659Z,9.20
2023-03-01T18:53:13.981Z,9.50
2023-03-01T18:55:50.448Z,9.20
2023-03-01T18:58:22.007Z,9.20
2023-03-01T19:00:57.603Z,9.70
2023-03-01T19:03:36.280Z,9.80
2023-03-01T19:06:13.613Z,10.60
2023-03-01T19:08:49.721Z,10.40
2023-03-01T19:11:21.248Z,12.10
2023-03-01T19:13:55.336Z,11.40
2023-03-01T19:16:35.729Z,12.40
2023-03-01T19:19:10.250Z,13.30
2023-03-01T19:21:55.946Z,11.80
2023-03-01T19:24:37.278Z,12.50
2023-03-01T19:27:21.171Z,13.50
2023-03-01T19:29:55.897Z,13.50
2023-03-01T19:34:59.008Z,12.00
2023-03-01T19:37:31.441Z,12.20
2023-03-01T19:40:11.282Z,14.80
2023-03-01T19:42:41.970Z,14.30
2023-03-01T19:45:22.403Z,12.50
2023-03-01T19:47:57.920Z,12.40
2023-03-01T19:50:28.821Z,12.20
2023-03-01T19:53:06.317Z,14.40
2023-03-01T19:55:39.755Z,13.00
2023-03-01T19:58:12.251Z,14.30
2023-03-01T20:00:57.147Z,12.20
2023-03-01T20:03:31.661Z,13.40
2023-03-01T20:06:15.252Z,13.30
2023-03-01T20:08:48.086Z,14.70
2023-03-01T20:11:24.941Z,14.40
2023-03-01T20:13:59.180Z,13.60
2023-03-01T20:16:30.570Z,12.50
2023-03-01T20:19:03.114Z,12.80
2023-03-01T20:21:43.219Z,12.70
2023-03-01T20:24:13.902Z,12.60
2023-03-01T20:26:44.756Z,13.20
2023-03-01T20:29:19.369Z,12.70
2023-03-01T20:31:50.430Z,13.30
2023-03-01T20:34:23.101Z,14.00
2023-03-01T20:37:03.416Z,13.20
2023-03-01T20:39:35.577Z,12.80
2023-03-01T20:42:12.398Z,12.30
2023-03-01T20:44:44.264Z,13.70
2023-03-01T20:47:20.688Z,14.00
2023-03-01T20:50:01.456Z,14.60
2023-03-01T20:52:46.916Z,13.90
2023-03-01T20:55:32.558Z,14.30
2023-03-01T20:58:21.404Z,14.40
2023-03-01T21:01:06.045Z,13.60
2023-03-01T21:03:42.555Z,14.90
2023-03-01T21:06:15.522Z,15.00
2023-03-01T21:08:46.666Z,15.60
2023-03-01T21:11:18.886Z,14.70
2023-03-01T21:13:49.781Z,13.70
2023-03-01T21:16:23.834Z,14.40
2023-03-01T21:18:55.418Z,15.20
2023-03-01T21:21:26.701Z,13.90
2023-03-01T21:24:00.412Z,15.90
2023-03-01T21:26:31.579Z,15.10
2023-03-01T21:29:03.212Z,15.40
2023-03-01T21:31:36.861Z,14.90
2023-03-01T21:34:11.956Z,15.60
2023-03-01T21:36:44.495Z,14.20
2023-03-01T21:39:15.338Z,16.30
2023-03-01T21:41:47.696Z,14.60
2023-03-01T21:44:21.152Z,16.30
2023-03-01T21:46:52.400Z,15.70
2023-03-01T21:49:26.575Z,15.30
2023-03-01T21:51:59.558Z,16.00
2023-03-01T21:54:30.803Z,15.60
2023-03-01T21:57:01.179Z,15.90
2023-03-01T21:59:31.657Z,15.60
2023-03-01T22:02:05.260Z,15.40
2023-03-01T22:04:36.054Z,17.30
2023-03-01T22:07:08.845Z,15.60
2023-03-01T22:09:40.594Z,15.60
2023-03-01T22:12:10.723Z,15.80
2023-03-01T22:14:44.165Z,15.90
2023-03-01T22:17:14.033Z,14.50
2023-03-01T22:19:45.663Z,15.70
2023-03-01T22:22:16.533Z,15.50
2023-03-01T22:24:49.317Z,15.30
2023-03-01T22:27:20.626Z,15.50
2023-03-01T22:29:53.611Z,15.40
2023-03-01T22:32:24.270Z,15.50
2023-03-01T22:34:55.811Z,15.70
2023-03-01T22:37:31.721Z,14.90
2023-03-01T22:40:07.471Z,15.70
2023-03-01T22:42:42.310Z,16.30
2023-03-01T22:45:13.904Z,16.10
2023-03-01T22:47:44.288Z,16.40
2023-03-01T22:50:16.582Z,16.50
2023-03-01T22:52:47.556Z,16.90
2023-03-01T22:55:20.539Z,16.60
2023-03-01T22:57:59.880Z,15.80
2023-03-01T23:00:30.413Z,16.70
2023-03-01T23:03:00.656Z,16.00
2023-03-01T23:05:31.277Z,16.10
2023-03-01T23:08:03.444Z,16.60
2023-03-01T23:10:33.825Z,16.50
2023-03-01T23:13:04.145Z,16.80
2023-03-01T23:15:36.886Z,17.20
2023-03-01T23:18:13.149Z,17.80
2023-03-01T23:20:46.400Z,16.50
2023-03-01T23:23:21.374Z,17.60
2023-03-01T23:25:59.323Z,17.00
2023-03-01T23:28:30.629Z,17.00
2023-03-01T23:31:05.618Z,17.50
2023-03-01T23:33:37.781Z,17.00
2023-03-01T23:36:19.174Z,16.90
2023-03-01T23:38:52.926Z,17.40
2023-03-01T23:41:25.771Z,17.60
2023-03-01T23:43:58.706Z,17.50
2023-03-01T23:46:32.097Z,17.50
2023-03-01T23:49:06.310Z,17.40
2023-03-01T23:51:36.600Z,18.40
2023-03-01T23:54:06.857Z,18.30
2023-03-01T23:56:48.825Z,16.80
2023-03-01T23:59:21.689Z,17.50
